sensor_id;sensor_type;location;lat;lon;timestamp;pressure;altitude;pressure_sealevel;temperature;humidity
50684;BME280;36654;45.042;38.994;2023-04-15T00:02:00;101053.44;;;11.63;60.03
50684;BME280;36654;45.042;38.994;2023-04-15T00:04:26;101057.00;;;11.65;59.86
50684;BME280;36654;45.042;38.994;2023-04-15T00:06:52;101054.28;;;11.57;59.77
50684;BME280;36654;45.042;38.994;2023-04-15T00:09:19;101045.47;;;11.61;59.91
50684;BME280;36654;45.042;38.994;2023-04-15T00:11:45;101015.16;;;11.41;59.96
50684;BME280;36654;45.042;38.994;2023-04-15T00:14:11;101042.78;;;11.58;59.90
50684;BME280;36654;45.042;38.994;2023-04-15T00:16:38;101052.56;;;11.62;60.05
50684;BME280;36654;45.042;38.994;2023-04-15T00:19:03;101054.31;;;11.59;59.73
50684;BME280;36654;45.042;38.994;2023-04-15T00:21:29;101046.34;;;11.59;59.85
50684;BME280;36654;45.042;38.994;2023-04-15T00:23:55;101045.41;;;11.57;60.03
50684;BME280;36654;45.042;38.994;2023-04-15T00:26:21;101040.88;;;11.48;60.18
50684;BME280;36654;45.042;38.994;2023-04-15T00:28:46;101023.97;;;11.40;60.15
50684;BME280;36654;45.042;38.994;2023-04-15T00:31:12;101044.47;;;11.52;60.12
50684;BME280;36654;45.042;38.994;2023-04-15T00:33:38;101040.88;;;11.47;59.87
50684;BME280;36654;45.042;38.994;2023-04-15T00:36:05;101071.03;;;11.52;60.08
50684;BME280;36654;45.042;38.994;2023-04-15T00:38:31;101055.97;;;11.51;60.00
50684;BME280;36654;45.042;38.994;2023-04-15T00:40:57;101067.44;;;11.50;60.12
50684;BME280;36654;45.042;38.994;2023-04-15T00:43:23;101042.59;;;11.44;59.83
50684;BME280;36654;45.042;38.994;2023-04-15T00:45:52;101050.66;;;11.51;60.00
50684;BME280;36654;45.042;38.994;2023-04-15T00:48:17;101078.09;;;11.53;59.90
50684;BME280;36654;45.042;38.994;2023-04-15T00:50:44;101063.81;;;11.43;59.96
50684;BME280;36654;45.042;38.994;2023-04-15T00:53:10;101067.47;;;11.53;59.91
50684;BME280;36654;45.042;38.994;2023-04-15T00:55:36;101075.44;;;11.51;59.83
50684;BME280;36654;45.042;38.994;2023-04-15T00:58:02;101041.50;;;11.27;59.91
50684;BME280;36654;45.042;38.994;2023-04-15T01:00:28;101081.66;;;11.52;59.84
50684;BME280;36654;45.042;38.994;2023-04-15T01:02:54;101094.03;;;11.53;59.82
50684;BME280;36654;45.042;38.994;2023-04-15T01:05:20;101058.53;;;11.44;59.75
50684;BME280;36654;45.042;38.994;2023-04-15T01:07:47;101085.19;;;11.52;59.71
50684;BME280;36654;45.042;38.994;2023-04-15T01:10:13;101063.66;;;11.29;59.88
50684;BME280;36654;45.042;38.994;2023-04-15T01:12:38;101078.06;;;11.50;60.02
50684;BME280;36654;45.042;38.994;2023-04-15T01:15:05;101076.34;;;11.52;60.32
50684;BME280;36654;45.042;38.994;2023-04-15T01:17:31;101090.50;;;11.51;60.12
50684;BME280;36654;45.042;38.994;2023-04-15T01:19:57;101084.19;;;11.45;60.16
50684;BME280;36654;45.042;38.994;2023-04-15T01:22:23;101077.06;;;11.40;60.14
50684;BME280;36654;45.042;38.994;2023-04-15T01:24:57;101055.66;;;11.28;60.22
50684;BME280;36654;45.042;38.994;2023-04-15T01:27:26;101085.97;;;11.45;60.33
50684;BME280;36654;45.042;38.994;2023-04-15T01:29:52;101083.38;;;11.50;60.34
50684;BME280;36654;45.042;38.994;2023-04-15T01:32:18;101083.34;;;11.47;60.28
50684;BME280;36654;45.042;38.994;2023-04-15T01:34:44;101091.28;;;11.45;60.40
50684;BME280;36654;45.042;38.994;2023-04-15T01:37:10;101089.50;;;11.45;60.46
50684;BME280;36654;45.042;38.994;2023-04-15T01:39:36;101093.97;;;11.47;60.50
50684;BME280;36654;45.042;38.994;2023-04-15T01:42:01;101079.75;;;11.41;60.54
50684;BME280;36654;45.042;38.994;2023-04-15T01:44:27;101036.91;;;11.14;60.52
50684;BME280;36654;45.042;38.994;2023-04-15T01:46:53;101088.50;;;11.34;60.34
50684;BME280;36654;45.042;38.994;2023-04-15T01:49:18;101090.34;;;11.38;60.63
50684;BME280;36654;45.042;38.994;2023-04-15T01:51:44;101100.09;;;11.42;60.56
50684;BME280;36654;45.042;38.994;2023-04-15T01:54:09;101094.81;;;11.45;60.45
50684;BME280;36654;45.042;38.994;2023-04-15T01:56:35;101098.38;;;11.44;60.40
50684;BME280;36654;45.042;38.994;2023-04-15T01:59:01;101049.28;;;11.15;60.53
50684;BME280;36654;45.042;38.994;2023-04-15T02:01:28;101095.69;;;11.41;60.51
50684;BME280;36654;45.042;38.994;2023-04-15T02:03:53;101077.91;;;11.37;60.53
50684;BME280;36654;45.042;38.994;2023-04-15T02:06:19;101044.00;;;11.15;60.40
50684;BME280;36654;45.042;38.994;2023-04-15T02:08:45;101080.53;;;11.34;60.42
50684;BME280;36654;45.042;38.994;2023-04-15T02:11:10;101088.53;;;11.37;60.27
50684;BME280;36654;45.042;38.994;2023-04-15T02:13:36;101088.63;;;11.43;60.33
50684;BME280;36654;45.042;38.994;2023-04-15T02:16:02;101100.97;;;11.41;60.37
50684;BME280;36654;45.042;38.994;2023-04-15T02:18:27;101099.19;;;11.40;60.15
50684;BME280;36654;45.042;38.994;2023-04-15T02:20:53;101110.72;;;11.42;60.38
50684;BME280;36654;45.042;38.994;2023-04-15T02:23:20;101115.09;;;11.40;60.25
50684;BME280;36654;45.042;38.994;2023-04-15T02:25:46;101116.06;;;11.45;60.38
50684;BME280;36654;45.042;38.994;2023-04-15T02:28:12;101092.06;;;11.36;60.28
50684;BME280;36654;45.042;38.994;2023-04-15T02:30:37;101106.25;;;11.38;60.08
50684;BME280;36654;45.042;38.994;2023-04-15T02:33:05;101063.41;;;11.12;60.38
50684;BME280;36654;45.042;38.994;2023-04-15T02:35:31;101093.63;;;11.22;60.26
50684;BME280;36654;45.042;38.994;2023-04-15T02:37:57;101094.66;;;11.32;60.17
50684;BME280;36654;45.042;38.994;2023-04-15T02:40:22;101106.19;;;11.35;60.08
50684;BME280;36654;45.042;38.994;2023-04-15T02:42:48;101113.38;;;11.42;59.86
50684;BME280;36654;45.042;38.994;2023-04-15T02:45:13;101067.03;;;11.16;60.02
50684;BME280;36654;45.042;38.994;2023-04-15T02:47:39;101120.44;;;11.42;59.90
50684;BME280;36654;45.042;38.994;2023-04-15T02:50:10;101126.75;;;11.49;60.11
50684;BME280;36654;45.042;38.994;2023-04-15T02:52:39;101130.31;;;11.52;59.71
50684;BME280;36654;45.042;38.994;2023-04-15T02:55:06;101132.00;;;11.45;59.79
50684;BME280;36654;45.042;38.994;2023-04-15T02:57:32;101129.44;;;11.52;59.22
50684;BME280;36654;45.042;38.994;2023-04-15T02:59:59;101137.53;;;11.62;59.11
50684;BME280;36654;45.042;38.994;2023-04-15T03:02:25;101130.00;;;11.95;58.49
50684;BME280;36654;45.042;38.994;2023-04-15T03:04:50;101112.34;;;11.98;57.32
50684;BME280;36654;45.042;38.994;2023-04-15T03:07:17;101151.38;;;12.05;57.80
50684;BME280;36654;45.042;38.994;2023-04-15T03:09:42;101161.09;;;12.02;57.77
50684;BME280;36654;45.042;38.994;2023-04-15T03:12:09;101161.88;;;11.95;57.77
50684;BME280;36654;45.042;38.994;2023-04-15T03:14:34;101174.66;;;12.23;57.60
50684;BME280;36654;45.042;38.994;2023-04-15T03:17:00;101173.25;;;12.59;56.12
50684;BME280;36654;45.042;38.994;2023-04-15T03:19:26;101184.22;;;12.93;55.22
50684;BME280;36654;45.042;38.994;2023-04-15T03:21:51;101179.94;;;13.16;53.88
50684;BME280;36654;45.042;38.994;2023-04-15T03:24:17;101176.56;;;13.34;53.14
50684;BME280;36654;45.042;38.994;2023-04-15T03:26:43;101147.97;;;13.10;53.01
50684;BME280;36654;45.042;38.994;2023-04-15T03:29:08;101181.25;;;13.80;52.61
50684;BME280;36654;45.042;38.994;2023-04-15T03:31:34;101178.84;;;14.44;50.67
50684;BME280;36654;45.042;38.994;2023-04-15T03:34:00;101183.38;;;15.07;48.66
50684;BME280;36654;45.042;38.994;2023-04-15T03:36:27;101172.66;;;15.53;47.34
50684;BME280;36654;45.042;38.994;2023-04-15T03:38:53;101173.47;;;15.90;46.19
50684;BME280;36654;45.042;38.994;2023-04-15T03:41:20;101208.94;;;16.31;45.13
50684;BME280;36654;45.042;38.994;2023-04-15T03:43:45;101211.50;;;16.55;44.10
50684;BME280;36654;45.042;38.994;2023-04-15T03:46:11;101209.56;;;16.85;44.05
50684;BME280;36654;45.042;38.994;2023-04-15T03:48:37;101214.59;;;17.22;43.32
50684;BME280;36654;45.042;38.994;2023-04-15T03:51:02;101204.56;;;17.45;42.82
50684;BME280;36654;45.042;38.994;2023-04-15T03:53:28;101223.25;;;17.52;43.19
50684;BME280;36654;45.042;38.994;2023-04-15T03:55:53;101230.50;;;17.43;42.96
50684;BME280;36654;45.042;38.994;2023-04-15T03:58:19;101214.78;;;17.00;43.44
50684;BME280;36654;45.042;38.994;2023-04-15T04:00:45;101198.88;;;16.76;44.24
50684;BME280;36654;45.042;38.994;2023-04-15T04:03:10;101238.00;;;17.01;43.83
50684;BME280;36654;45.042;38.994;2023-04-15T04:05:36;101251.44;;;16.92;44.06
50684;BME280;36654;45.042;38.994;2023-04-15T04:08:03;101242.59;;;16.72;44.66
50684;BME280;36654;45.042;38.994;2023-04-15T04:10:29;101256.06;;;16.59;44.82
50684;BME280;36654;45.042;38.994;2023-04-15T04:12:55;101242.75;;;16.49;45.04
50684;BME280;36654;45.042;38.994;2023-04-15T04:15:20;101254.28;;;16.61;45.04
50684;BME280;36654;45.042;38.994;2023-04-15T04:17:46;101246.06;;;16.95;44.44
50684;BME280;36654;45.042;38.994;2023-04-15T04:20:12;101216.31;;;17.29;43.31
50684;BME280;36654;45.042;38.994;2023-04-15T04:22:38;101215.13;;;17.61;43.01
50684;BME280;36654;45.042;38.994;2023-04-15T04:25:07;101241.50;;;18.04;42.01
50684;BME280;36654;45.042;38.994;2023-04-15T04:27:33;101245.47;;;17.64;42.78
50684;BME280;36654;45.042;38.994;2023-04-15T04:29:59;101209.34;;;17.13;43.26
50684;BME280;36654;45.042;38.994;2023-04-15T04:32:26;101266.50;;;17.09;44.03
50684;BME280;36654;45.042;38.994;2023-04-15T04:34:52;101258.66;;;16.76;44.60
50684;BME280;36654;45.042;38.994;2023-04-15T04:37:17;101217.03;;;16.18;45.32
50684;BME280;36654;45.042;38.994;2023-04-15T04:39:43;101254.47;;;16.22;46.14
50684;BME280;36654;45.042;38.994;2023-04-15T04:42:09;101266.00;;;16.34;46.37
50684;BME280;36654;45.042;38.994;2023-04-15T04:44:34;101252.59;;;16.45;45.97
50684;BME280;36654;45.042;38.994;2023-04-15T04:47:00;101263.19;;;16.62;45.84
50684;BME280;36654;45.042;38.994;2023-04-15T04:49:25;101231.00;;;16.76;45.32
50684;BME280;36654;45.042;38.994;2023-04-15T04:51:51;101258.38;;;17.21;44.65
50684;BME280;36654;45.042;38.994;2023-04-15T04:54:17;101280.53;;;17.43;44.17
50684;BME280;36654;45.042;38.994;2023-04-15T04:56:43;101273.19;;;17.62;43.69
50684;BME280;36654;45.042;38.994;2023-04-15T04:59:08;101279.28;;;17.79;43.06
50684;BME280;36654;45.042;38.994;2023-04-15T05:01:34;101269.69;;;17.60;43.33
50684;BME280;36654;45.042;38.994;2023-04-15T05:04:00;101281.16;;;17.69;42.96
50684;BME280;36654;45.042;38.994;2023-04-15T05:06:25;101267.59;;;17.89;43.07
50684;BME280;36654;45.042;38.994;2023-04-15T05:08:51;101279.03;;;18.07;42.39
50684;BME280;36654;45.042;38.994;2023-04-15T05:11:17;101274.69;;;17.97;42.49
50684;BME280;36654;45.042;38.994;2023-04-15T05:13:43;101276.56;;;17.90;42.56
50684;BME280;36654;45.042;38.994;2023-04-15T05:16:08;101284.44;;;18.05;42.65
50684;BME280;36654;45.042;38.994;2023-04-15T05:18:34;101243.31;;;18.02;42.37
50684;BME280;36654;45.042;38.994;2023-04-15T05:20:59;101282.94;;;18.57;42.06
50684;BME280;36654;45.042;38.994;2023-04-15T05:23:25;101281.59;;;18.90;41.36
50684;BME280;36654;45.042;38.994;2023-04-15T05:25:51;101248.38;;;18.94;40.92
50684;BME280;36654;45.042;38.994;2023-04-15T05:28:17;101273.13;;;19.16;39.96
50684;BME280;36654;45.042;38.994;2023-04-15T05:30:42;101289.06;;;19.29;39.87
50684;BME280;36654;45.042;38.994;2023-04-15T05:33:08;101291.53;;;19.41;39.77
50684;BME280;36654;45.042;38.994;2023-04-15T05:35:34;101302.91;;;19.58;39.19
50684;BME280;36654;45.042;38.994;2023-04-15T05:37:59;101296.09;;;19.36;39.15
50684;BME280;36654;45.042;38.994;2023-04-15T05:40:25;101291.31;;;18.99;39.71
50684;BME280;36654;45.042;38.994;2023-04-15T05:42:51;101293.69;;;18.54;40.87
50684;BME280;36654;45.042;38.994;2023-04-15T05:45:17;101305.63;;;18.27;41.25
50684;BME280;36654;45.042;38.994;2023-04-15T05:47:43;101297.00;;;17.99;41.91
50684;BME280;36654;45.042;38.994;2023-04-15T05:50:09;101304.41;;;17.71;42.55
50684;BME280;36654;45.042;38.994;2023-04-15T05:52:34;101279.78;;;17.24;43.54
50684;BME280;36654;45.042;38.994;2023-04-15T05:55:00;101317.34;;;17.18;44.39
50684;BME280;36654;45.042;38.994;2023-04-15T05:57:26;101289.88;;;16.85;44.72
50684;BME280;36654;45.042;38.994;2023-04-15T05:59:51;101297.06;;;16.65;45.03
50684;BME280;36654;45.042;38.994;2023-04-15T06:02:17;101316.75;;;16.60;45.66
50684;BME280;36654;45.042;38.994;2023-04-15T06:04:43;101311.41;;;16.51;46.28
50684;BME280;36654;45.042;38.994;2023-04-15T06:07:08;101308.75;;;16.47;46.34
50684;BME280;36654;45.042;38.994;2023-04-15T06:09:34;101270.53;;;16.09;46.62
50684;BME280;36654;45.042;38.994;2023-04-15T06:12:00;101316.84;;;16.30;46.59
50684;BME280;36654;45.042;38.994;2023-04-15T06:14:26;101326.66;;;16.31;46.66
50684;BME280;36654;45.042;38.994;2023-04-15T06:16:52;101325.78;;;16.35;46.62
50684;BME280;36654;45.042;38.994;2023-04-15T06:19:18;101336.47;;;16.32;46.77
50684;BME280;36654;45.042;38.994;2023-04-15T06:21:44;101331.13;;;16.29;46.64
50684;BME280;36654;45.042;38.994;2023-04-15T06:24:11;101317.75;;;16.26;47.21
50684;BME280;36654;45.042;38.994;2023-04-15T06:26:36;101340.06;;;16.18;47.44
50684;BME280;36654;45.042;38.994;2023-04-15T06:29:02;101350.78;;;16.18;47.21
50684;BME280;36654;45.042;38.994;2023-04-15T06:31:39;101308.03;;;15.91;47.13
50684;BME280;36654;45.042;38.994;2023-04-15T06:34:08;101312.47;;;15.92;47.20
50684;BME280;36654;45.042;38.994;2023-04-15T06:36:33;101340.97;;;16.11;46.99
50684;BME280;36654;45.042;38.994;2023-04-15T06:38:59;101346.34;;;16.05;46.65
50684;BME280;36654;45.042;38.994;2023-04-15T06:41:25;101325.88;;;15.95;46.48
50684;BME280;36654;45.042;38.994;2023-04-15T06:43:51;101350.78;;;16.06;46.94
50684;BME280;36654;45.042;38.994;2023-04-15T06:46:16;101350.81;;;16.03;47.02
50684;BME280;36654;45.042;38.994;2023-04-15T06:48:42;101332.97;;;16.02;46.71
50684;BME280;36654;45.042;38.994;2023-04-15T06:51:08;101350.75;;;16.12;46.48
50684;BME280;36654;45.042;38.994;2023-04-15T06:53:34;101345.44;;;16.15;46.15
50684;BME280;36654;45.042;38.994;2023-04-15T06:56:01;101338.28;;;16.11;46.37
50684;BME280;36654;45.042;38.994;2023-04-15T06:58:26;101330.28;;;16.08;46.22
50684;BME280;36654;45.042;38.994;2023-04-15T07:00:55;101349.88;;;16.21;46.28
50684;BME280;36654;45.042;38.994;2023-04-15T07:03:21;101340.06;;;16.22;46.77
50684;BME280;36654;45.042;38.994;2023-04-15T07:05:46;101327.59;;;16.21;46.82
50684;BME280;36654;45.042;38.994;2023-04-15T07:08:12;101343.59;;;16.30;46.90
50684;BME280;36654;45.042;38.994;2023-04-15T07:10:38;101332.88;;;16.30;46.49
50684;BME280;36654;45.042;38.994;2023-04-15T07:13:03;101348.03;;;16.37;46.81
50684;BME280;36654;45.042;38.994;2023-04-15T07:15:30;101339.13;;;16.43;47.13
50684;BME280;36654;45.042;38.994;2023-04-15T07:17:55;101300.84;;;16.21;46.99
50684;BME280;36654;45.042;38.994;2023-04-15T07:20:21;101338.22;;;16.41;46.63
50684;BME280;36654;45.042;38.994;2023-04-15T07:22:47;101332.00;;;16.35;46.45
50684;BME280;36654;45.042;38.994;2023-04-15T07:25:12;101313.28;;;16.25;45.80
50684;BME280;36654;45.042;38.994;2023-04-15T07:27:38;101334.63;;;16.49;45.83
50684;BME280;36654;45.042;38.994;2023-04-15T07:30:04;101323.03;;;16.44;46.02
50684;BME280;36654;45.042;38.994;2023-04-15T07:32:30;101345.22;;;16.74;45.53
50684;BME280;36654;45.042;38.994;2023-04-15T07:34:56;101331.88;;;16.80;44.92
50684;BME280;36654;45.042;38.994;2023-04-15T07:37:22;101345.16;;;16.95;44.51
50684;BME280;36654;45.042;38.994;2023-04-15T07:39:47;101349.47;;;17.19;44.64
50684;BME280;36654;45.042;38.994;2023-04-15T07:42:13;101354.75;;;17.32;45.14
50684;BME280;36654;45.042;38.994;2023-04-15T07:44:39;101350.22;;;17.41;45.15
50684;BME280;36654;45.042;38.994;2023-04-15T07:47:05;101338.59;;;17.44;44.94
50684;BME280;36654;45.042;38.994;2023-04-15T07:49:31;101350.09;;;17.60;43.99
50684;BME280;36654;45.042;38.994;2023-04-15T07:51:56;101342.03;;;17.61;44.03
50684;BME280;36654;45.042;38.994;2023-04-15T07:54:24;101317.03;;;17.56;44.29
50684;BME280;36654;45.042;38.994;2023-04-15T07:56:50;101355.28;;;17.81;43.80
50684;BME280;36654;45.042;38.994;2023-04-15T07:59:16;101347.22;;;17.87;43.61
50684;BME280;36654;45.042;38.994;2023-04-15T08:01:42;101346.28;;;17.90;43.34
50684;BME280;36654;45.042;38.994;2023-04-15T08:04:08;101355.09;;;18.03;43.21
50684;BME280;36654;45.042;38.994;2023-04-15T08:06:34;101344.25;;;18.15;43.34
50684;BME280;36654;45.042;38.994;2023-04-15T08:09:01;101348.53;;;18.31;43.42
50684;BME280;36654;45.042;38.994;2023-04-15T08:11:26;101347.56;;;18.40;42.96
50684;BME280;36654;45.042;38.994;2023-04-15T08:13:52;101294.94;;;18.24;42.67
50684;BME280;36654;45.042;38.994;2023-04-15T08:16:19;101332.28;;;18.45;42.83
50684;BME280;36654;45.042;38.994;2023-04-15T08:18:46;101334.94;;;18.47;42.75
50684;BME280;36654;45.042;38.994;2023-04-15T08:21:12;101323.31;;;18.48;42.77
50684;BME280;36654;45.042;38.994;2023-04-15T08:23:38;101338.38;;;18.58;41.97
50684;BME280;36654;45.042;38.994;2023-04-15T08:26:04;101324.91;;;18.61;42.68
50684;BME280;36654;45.042;38.994;2023-04-15T08:28:30;101329.22;;;18.76;42.83
50684;BME280;36654;45.042;38.994;2023-04-15T08:30:56;101286.50;;;18.56;42.87
50684;BME280;36654;45.042;38.994;2023-04-15T08:33:22;101342.50;;;18.87;41.97
50684;BME280;36654;45.042;38.994;2023-04-15T08:35:48;101339.13;;;18.69;42.43
50684;BME280;36654;45.042;38.994;2023-04-15T08:38:13;101302.69;;;18.50;42.85
50684;BME280;36654;45.042;38.994;2023-04-15T08:40:44;101329.19;;;18.81;43.28
50684;BME280;36654;45.042;38.994;2023-04-15T08:43:14;101298.88;;;18.66;42.66
50684;BME280;36654;45.042;38.994;2023-04-15T08:45:43;101336.13;;;18.97;42.42
50684;BME280;36654;45.042;38.994;2023-04-15T08:48:14;101320.00;;;18.97;42.29
50684;BME280;36654;45.042;38.994;2023-04-15T08:50:43;101323.41;;;19.08;42.46
50684;BME280;36654;45.042;38.994;2023-04-15T08:53:10;101324.25;;;19.12;42.09
50684;BME280;36654;45.042;38.994;2023-04-15T08:55:41;101337.44;;;19.29;42.54
50684;BME280;36654;45.042;38.994;2023-04-15T08:58:09;101326.59;;;19.35;42.11
50684;BME280;36654;45.042;38.994;2023-04-15T09:00:35;101328.28;;;19.42;41.94
50684;BME280;36654;45.042;38.994;2023-04-15T09:03:03;101347.06;;;19.44;41.74
50684;BME280;36654;45.042;38.994;2023-04-15T09:05:31;101308.84;;;19.25;41.69
50684;BME280;36654;45.042;38.994;2023-04-15T09:07:58;101337.53;;;19.23;42.36
50684;BME280;36654;45.042;38.994;2023-04-15T09:10:24;101333.94;;;19.24;42.55
50684;BME280;36654;45.042;38.994;2023-04-15T09:12:49;101339.13;;;19.36;42.50
50684;BME280;36654;45.042;38.994;2023-04-15T09:15:15;101323.13;;;19.27;41.83
50684;BME280;36654;45.042;38.994;2023-04-15T09:17:45;101332.16;;;19.23;42.50
50684;BME280;36654;45.042;38.994;2023-04-15T09:20:13;101323.06;;;19.31;42.77
50684;BME280;36654;45.042;38.994;2023-04-15T09:22:40;101328.22;;;19.45;42.44
50684;BME280;36654;45.042;38.994;2023-04-15T09:25:27;101328.78;;;19.64;41.81
50684;BME280;36654;45.042;38.994;2023-04-15T09:27:55;101310.09;;;19.56;40.85
50684;BME280;36654;45.042;38.994;2023-04-15T09:30:21;101326.88;;;19.74;41.46
50684;BME280;36654;45.042;38.994;2023-04-15T09:32:58;101331.09;;;19.90;41.28
50684;BME280;36654;45.042;38.994;2023-04-15T09:35:25;101332.84;;;19.91;41.79
50684;BME280;36654;45.042;38.994;2023-04-15T09:37:52;101336.41;;;19.93;41.00
50684;BME280;36654;45.042;38.994;2023-04-15T09:40:32;101298.47;;;19.54;41.51
50684;BME280;36654;45.042;38.994;2023-04-15T09:42:59;101329.63;;;19.71;42.00
50684;BME280;36654;45.042;38.994;2023-04-15T09:45:24;101324.09;;;19.78;41.89
50684;BME280;36654;45.042;38.994;2023-04-15T09:47:50;101334.78;;;19.83;42.01
50684;BME280;36654;45.042;38.994;2023-04-15T09:50:18;101336.75;;;19.75;41.89
50684;BME280;36654;45.042;38.994;2023-04-15T09:52:43;101334.19;;;19.67;41.47
50684;BME280;36654;45.042;38.994;2023-04-15T09:55:10;101325.34;;;19.57;41.64
50684;BME280;36654;45.042;38.994;2023-04-15T09:57:38;101329.13;;;19.46;41.85
50684;BME280;36654;45.042;38.994;2023-04-15T10:00:06;101329.16;;;19.43;41.87
50684;BME280;36654;45.042;38.994;2023-04-15T10:02:34;101336.25;;;19.47;41.77
50684;BME280;36654;45.042;38.994;2023-04-15T10:05:03;101336.97;;;19.59;41.97
50684;BME280;36654;45.042;38.994;2023-04-15T10:07:28;101327.91;;;19.65;42.91
50684;BME280;36654;45.042;38.994;2023-04-15T10:09:55;101344.59;;;19.87;42.87
50684;BME280;36654;45.042;38.994;2023-04-15T10:12:26;101323.16;;;19.82;43.00
50684;BME280;36654;45.042;38.994;2023-04-15T10:14:58;101334.66;;;19.89;43.03
50684;BME280;36654;45.042;38.994;2023-04-15T10:17:26;101347.88;;;20.03;42.55
50684;BME280;36654;45.042;38.994;2023-04-15T10:20:00;101326.59;;;19.89;42.58
50684;BME280;36654;45.042;38.994;2023-04-15T10:22:27;101342.59;;;19.98;42.69
50684;BME280;36654;45.042;38.994;2023-04-15T10:24:54;101331.88;;;19.97;41.93
50684;BME280;36654;45.042;38.994;2023-04-15T10:27:20;101331.09;;;19.90;42.55
50684;BME280;36654;45.042;38.994;2023-04-15T10:29:50;101338.22;;;19.91;42.91
50684;BME280;36654;45.042;38.994;2023-04-15T10:32:18;101354.31;;;19.94;43.12
50684;BME280;36654;45.042;38.994;2023-04-15T10:34:47;101349.69;;;20.02;42.73
50684;BME280;36654;45.042;38.994;2023-04-15T10:37:20;101340.03;;;19.92;42.28
50684;BME280;36654;45.042;38.994;2023-04-15T10:39:46;101334.72;;;19.86;42.81
50684;BME280;36654;45.042;38.994;2023-04-15T10:42:15;101324.03;;;19.83;43.31
50684;BME280;36654;45.042;38.994;2023-04-15T10:44:48;101340.78;;;19.99;42.76
50684;BME280;36654;45.042;38.994;2023-04-15T10:47:16;101338.84;;;20.07;42.75
50684;BME280;36654;45.042;38.994;2023-04-15T10:52:14;101354.22;;;20.00;42.77
50684;BME280;36654;45.042;38.994;2023-04-15T10:54:43;101342.88;;;19.83;42.87
50684;BME280;36654;45.042;38.994;2023-04-15T10:57:38;101348.44;;;19.72;43.27
50684;BME280;36654;45.042;38.994;2023-04-15T11:05:08;101356.88;;;19.46;44.15
50684;BME280;36654;45.042;38.994;2023-04-15T11:07:53;101351.44;;;19.52;43.59
50684;BME280;36654;45.042;38.994;2023-04-15T11:12:46;101344.69;;;19.81;42.98
50684;BME280;36654;45.042;38.994;2023-04-15T11:15:37;101338.63;;;19.70;43.61
50684;BME280;36654;45.042;38.994;2023-04-15T11:18:14;101349.44;;;19.64;44.05
50684;BME280;36654;45.042;38.994;2023-04-15T11:20:45;101352.38;;;19.48;44.93
50684;BME280;36654;45.042;38.994;2023-04-15T11:23:13;101360.69;;;19.33;47.54
50684;BME280;36654;45.042;38.994;2023-04-15T11:25:39;101345.72;;;19.15;48.89
50684;BME280;36654;45.042;38.994;2023-04-15T11:28:05;101373.53;;;19.09;50.00
50684;BME280;36654;45.042;38.994;2023-04-15T11:30:35;101368.44;;;18.91;51.17
50684;BME280;36654;45.042;38.994;2023-04-15T11:33:03;101377.56;;;18.76;51.74
50684;BME280;36654;45.042;38.994;2023-04-15T11:35:29;101374.13;;;18.65;51.93
50684;BME280;36654;45.042;38.994;2023-04-15T11:37:55;101380.38;;;18.65;52.10
50684;BME280;36654;45.042;38.994;2023-04-15T11:40:23;101333.25;;;18.40;51.90
50684;BME280;36654;45.042;38.994;2023-04-15T11:45:51;101372.28;;;18.68;52.18
50684;BME280;36654;45.042;38.994;2023-04-15T11:48:17;101376.81;;;18.62;53.08
50684;BME280;36654;45.042;38.994;2023-04-15T11:50:43;101382.22;;;18.59;53.06
50684;BME280;36654;45.042;38.994;2023-04-15T11:53:11;101380.50;;;18.51;53.03
50684;BME280;36654;45.042;38.994;2023-04-15T11:55:51;101402.88;;;18.52;53.94
50684;BME280;36654;45.042;38.994;2023-04-15T11:58:22;101394.16;;;18.31;54.14
50684;BME280;36654;45.042;38.994;2023-04-15T12:00:59;101397.81;;;18.27;54.04
50684;BME280;36654;45.042;38.994;2023-04-15T12:03:37;101417.53;;;18.20;55.02
50684;BME280;36654;45.042;38.994;2023-04-15T12:06:20;101381.22;;;17.82;56.15
50684;BME280;36654;45.042;38.994;2023-04-15T12:09:00;101389.38;;;17.64;56.90
50684;BME280;36654;45.042;38.994;2023-04-15T12:11:27;101405.38;;;17.72;57.33
50684;BME280;36654;45.042;38.994;2023-04-15T12:16:22;101403.78;;;17.48;57.27
50684;BME280;36654;45.042;38.994;2023-04-15T12:18:58;101389.50;;;17.45;57.51
50684;BME280;36654;45.042;38.994;2023-04-15T12:21:27;101405.47;;;17.59;57.37
50684;BME280;36654;45.042;38.994;2023-04-15T12:23:57;101406.34;;;17.66;57.40
50684;BME280;36654;45.042;38.994;2023-04-15T12:26:30;101367.22;;;17.40;57.22
50684;BME280;36654;45.042;38.994;2023-04-15T12:29:06;101426.16;;;17.45;57.32
50684;BME280;36654;45.042;38.994;2023-04-15T12:31:36;101413.72;;;17.29;57.45
50684;BME280;36654;45.042;38.994;2023-04-15T12:34:03;101414.66;;;17.23;58.02
50684;BME280;36654;45.042;38.994;2023-04-15T12:36:32;101429.03;;;17.03;58.06
50684;BME280;36654;45.042;38.994;2023-04-15T12:39:03;101437.13;;;16.93;58.56
50684;BME280;36654;45.042;38.994;2023-04-15T12:41:30;101436.25;;;16.86;58.66
50684;BME280;36654;45.042;38.994;2023-04-15T12:43:56;101381.00;;;16.57;58.70
50684;BME280;36654;45.042;38.994;2023-04-15T12:46:21;101438.03;;;16.89;59.35
50684;BME280;36654;45.042;38.994;2023-04-15T12:48:47;101430.00;;;16.73;58.79
50684;BME280;36654;45.042;38.994;2023-04-15T12:51:14;101441.63;;;16.68;59.11
50684;BME280;36654;45.042;38.994;2023-04-15T12:53:39;101441.66;;;16.63;59.06
50684;BME280;36654;45.042;38.994;2023-04-15T12:56:05;101412.22;;;16.55;58.78